Terminal Aerodrome Forecast
Issued by NWS Detroit/Pontiac, MI

Home | Current Version | Previous Version | Text Only | Print | Product List | Glossary On
Versions: 1 2 3 4 5 6 7 8 9 10 11 12 13 14 15
000
FTUS43 KDTX 041120
TAFFNT
TAF
KFNT 041120Z 0412/0512 17004KT P6SM -SHRA SCT035 BKN050 OVC070
     FM041700 18004KT 6SM SHRA BR SCT022 OVC045
     FM042000 01012KT 4SM -SHRA BR BKN014 OVC022
     FM042300 04010KT P6SM OVC012
     FM050200 02008KT P6SM SCT006 BKN022
     FM050600 02005KT P6SM BKN030=

USA.gov is the U.S. government's official web portal to all federal, state and local government web resources and services.